Terminal Aerodrome Forecast
Issued by NWS Cleveland, OH

Home | Current Version | Previous Version | Graphics & Text | Print | Product List | Glossary Off
Versions: 1 2 3 4 5 6 7 8 9 10 11 12 13 14 15 16 17 18 19

000
FTUS41 KCLE 282300
TAFMFD
TAF
KMFD 282327Z 2900/2924 16008KT P6SM -SN SCT020 OVC100
      TEMPO 2900/2902 3SM -SHSN OVC020
     FM290800 18012KT P6SM SCT025 OVC045
     FM291500 18014G20KT P6SM VCSH SCT020 OVC035
     FM292200 20014G22KT 6SM -RA BR OVC020
      TEMPO 2922/2924 4SM -RA BR OVC008=

USA.gov is the U.S. government's official web portal to all federal, state and local government web resources and services.